createdAt,value
2023-03-15T00:02:31.739Z,13.90
2023-03-15T00:05:03.887Z,12.00
2023-03-15T00:07:36.184Z,11.93
2023-03-15T00:10:11.922Z,16.23
2023-03-15T00:12:45.212Z,14.07
2023-03-15T00:15:18.116Z,15.27
2023-03-15T00:17:50.497Z,14.65
2023-03-15T00:20:22.691Z,11.38
2023-03-15T00:22:55.043Z,16.05
2023-03-15T00:25:29.727Z,17.77
2023-03-15T00:28:02.086Z,15.48
2023-03-15T00:30:34.095Z,15.82
2023-03-15T00:33:06.801Z,13.40
2023-03-15T00:35:42.940Z,16.67
2023-03-15T00:38:16.183Z,13.55
2023-03-15T00:40:50.785Z,9.52
2023-03-15T00:43:23.688Z,12.70
2023-03-15T00:45:55.679Z,10.88
2023-03-15T00:48:28.022Z,14.15
2023-03-15T00:51:08.432Z,18.25
2023-03-15T00:53:42.666Z,19.67
2023-03-15T00:56:20.334Z,15.02
2023-03-15T00:58:53.285Z,11.10
2023-03-15T01:01:27.805Z,17.25
2023-03-15T01:04:01.692Z,13.20
2023-03-15T01:06:33.824Z,8.63
2023-03-15T01:09:06.136Z,12.05
2023-03-15T01:11:40.926Z,16.25
2023-03-15T01:14:13.703Z,12.45
2023-03-15T01:16:45.773Z,11.10
2023-03-15T01:19:18.442Z,13.60
2023-03-15T01:21:50.309Z,13.13
2023-03-15T01:24:22.710Z,9.63
2023-03-15T01:26:57.262Z,11.65
2023-03-15T01:29:29.563Z,8.05
2023-03-15T01:32:01.570Z,12.90
2023-03-15T01:34:33.886Z,9.88
2023-03-15T01:37:06.108Z,11.02
2023-03-15T01:39:38.606Z,13.32
2023-03-15T01:42:13.770Z,9.23
2023-03-15T01:44:55.007Z,11.40
2023-03-15T01:47:29.018Z,15.27
2023-03-15T01:50:06.943Z,13.82
2023-03-15T01:52:42.611Z,10.90
2023-03-15T01:55:18.342Z,11.85
2023-03-15T01:57:56.848Z,8.93
2023-03-15T02:00:29.948Z,13.98
2023-03-15T02:03:08.333Z,12.45
2023-03-15T02:05:46.689Z,12.60
2023-03-15T02:08:22.213Z,9.55
2023-03-15T02:10:58.903Z,12.52
2023-03-15T02:13:34.804Z,15.35
2023-03-15T02:16:08.671Z,13.35
2023-03-15T02:18:41.426Z,16.85
2023-03-15T02:21:24.425Z,10.85
2023-03-15T02:24:03.943Z,15.35
2023-03-15T02:26:43.168Z,6.60
2023-03-15T02:29:18.198Z,15.07
2023-03-15T02:31:50.546Z,12.20
2023-03-15T02:34:25.794Z,9.63
2023-03-15T02:36:58.191Z,11.63
2023-03-15T02:39:30.205Z,11.25
2023-03-15T02:42:02.726Z,6.35
2023-03-15T02:44:40.190Z,12.27
2023-03-15T02:47:17.139Z,12.57
2023-03-15T02:49:54.289Z,13.55
2023-03-15T02:52:26.793Z,14.38
2023-03-15T02:54:58.770Z,18.42
2023-03-15T02:57:31.736Z,15.55
2023-03-15T03:00:14.612Z,13.75
2023-03-15T03:02:50.290Z,19.48
2023-03-15T03:05:22.456Z,13.70
2023-03-15T03:07:55.391Z,14.85
2023-03-15T03:10:28.815Z,12.68
2023-03-15T03:13:01.286Z,12.52
2023-03-15T03:15:36.034Z,14.45
2023-03-15T03:18:08.503Z,18.20
2023-03-15T03:20:40.432Z,14.02
2023-03-15T03:23:12.866Z,15.90
2023-03-15T03:25:46.002Z,10.93
2023-03-15T03:28:18.366Z,12.23
2023-03-15T03:30:53.133Z,14.10
2023-03-15T03:33:26.209Z,16.05
2023-03-15T03:36:05.270Z,14.10
2023-03-15T03:38:37.521Z,16.65
2023-03-15T03:41:09.402Z,11.50
2023-03-15T03:43:42.180Z,13.23
2023-03-15T03:46:17.005Z,10.23
2023-03-15T03:48:49.401Z,11.88
2023-03-15T03:51:21.331Z,15.13
2023-03-15T03:53:53.661Z,12.20
2023-03-15T03:56:25.722Z,9.95
2023-03-15T03:58:58.092Z,12.02
2023-03-15T04:01:32.569Z,11.07
2023-03-15T04:04:04.929Z,18.50
2023-03-15T04:06:37.069Z,19.20
2023-03-15T04:09:11.442Z,14.48
2023-03-15T04:11:45.154Z,14.27
2023-03-15T04:14:18.145Z,15.48
2023-03-15T04:16:52.804Z,21.13
2023-03-15T04:19:25.159Z,15.23
2023-03-15T04:21:57.241Z,18.23
2023-03-15T04:24:29.573Z,12.48
2023-03-15T04:27:01.504Z,9.98
2023-03-15T04:29:33.802Z,24.45
2023-03-15T04:32:08.443Z,17.63
2023-03-15T04:34:41.725Z,12.75
2023-03-15T04:37:13.967Z,14.40
2023-03-15T04:39:46.358Z,20.27
2023-03-15T04:42:18.486Z,8.57
2023-03-15T04:44:50.894Z,12.35
2023-03-15T04:47:25.333Z,18.33
2023-03-15T04:49:57.538Z,16.20
2023-03-15T04:52:29.250Z,13.48
2023-03-15T04:55:01.250Z,16.30
2023-03-15T04:57:32.845Z,14.05
2023-03-15T05:00:08.199Z,10.88
2023-03-15T05:02:43.091Z,10.10
2023-03-15T05:05:15.807Z,12.23
2023-03-15T05:07:47.388Z,19.13
2023-03-15T05:10:19.877Z,15.57
2023-03-15T05:12:51.431Z,16.77
2023-03-15T05:15:23.544Z,11.88
2023-03-15T05:18:10.092Z,13.82
2023-03-15T05:20:44.898Z,11.20
2023-03-15T05:23:16.828Z,14.75
2023-03-15T05:25:55.690Z,14.32
2023-03-15T05:28:28.470Z,12.90
2023-03-15T05:31:02.923Z,14.10
2023-03-15T05:33:37.312Z,20.38
2023-03-15T05:36:09.635Z,12.35
2023-03-15T05:38:44.005Z,14.85
2023-03-15T05:41:18.430Z,12.48
2023-03-15T05:43:50.188Z,16.10
2023-03-15T05:46:23.038Z,12.60
2023-03-15T05:48:57.376Z,11.90
2023-03-15T05:51:29.390Z,11.13
2023-03-15T05:54:01.072Z,20.52
2023-03-15T05:56:32.906Z,16.08
2023-03-15T05:59:05.325Z,15.45
2023-03-15T06:01:37.292Z,21.13
2023-03-15T06:04:11.748Z,14.15
2023-03-15T06:06:43.664Z,15.50
2023-03-15T06:09:15.288Z,15.95
2023-03-15T06:11:47.385Z,16.00
2023-03-15T06:14:19.128Z,15.13
2023-03-15T06:16:51.294Z,11.18
2023-03-15T06:19:25.967Z,19.35
2023-03-15T06:21:57.945Z,16.35
2023-03-15T06:24:29.671Z,13.00
2023-03-15T06:27:01.910Z,15.20
2023-03-15T06:29:33.945Z,15.52
2023-03-15T06:32:06.374Z,12.43
2023-03-15T06:34:40.673Z,14.23
2023-03-15T06:37:16.275Z,18.95
2023-03-15T06:39:53.087Z,20.58
2023-03-15T06:42:25.193Z,20.67
2023-03-15T06:44:57.250Z,12.45
2023-03-15T06:47:29.772Z,15.43
2023-03-15T06:50:04.710Z,16.73
2023-03-15T06:52:37.431Z,8.73
2023-03-15T06:55:10.606Z,14.25
2023-03-15T06:57:44.723Z,11.48
2023-03-15T07:00:18.508Z,15.43
2023-03-15T07:02:51.110Z,11.82
2023-03-15T07:05:26.216Z,17.73
2023-03-15T07:07:59.156Z,16.17
2023-03-15T07:10:33.872Z,15.55
2023-03-15T07:13:07.127Z,21.08
2023-03-15T07:15:39.925Z,14.80
2023-03-15T07:18:12.180Z,17.40
2023-03-15T07:20:46.466Z,21.13
2023-03-15T07:23:18.711Z,16.90
2023-03-15T07:25:55.014Z,12.02
2023-03-15T07:28:29.561Z,14.75
2023-03-15T07:31:03.292Z,20.15
2023-03-15T07:33:37.982Z,14.70
2023-03-15T07:36:12.663Z,20.92
2023-03-15T07:38:44.927Z,14.45
2023-03-15T07:41:16.775Z,12.75
2023-03-15T07:43:48.827Z,13.75
2023-03-15T07:46:20.645Z,16.63
2023-03-15T07:48:52.841Z,13.20
2023-03-15T07:51:27.369Z,21.45
2023-03-15T07:53:59.512Z,25.05
2023-03-15T07:56:31.243Z,21.45
2023-03-15T07:59:03.361Z,13.90
2023-03-15T08:01:35.172Z,21.80
2023-03-15T08:04:07.411Z,17.90
2023-03-15T08:06:41.883Z,14.93
2023-03-15T08:09:14.061Z,20.63
2023-03-15T08:11:45.885Z,9.85
2023-03-15T08:14:18.022Z,14.32
2023-03-15T08:16:49.759Z,14.43
2023-03-15T08:19:22.429Z,13.15
2023-03-15T08:21:56.839Z,18.60
2023-03-15T08:24:28.865Z,17.42
2023-03-15T08:27:00.748Z,18.05
2023-03-15T08:29:32.989Z,14.98
2023-03-15T08:32:04.752Z,17.58
2023-03-15T08:34:38.107Z,15.27
2023-03-15T08:37:13.716Z,11.00
2023-03-15T08:39:45.892Z,16.10
2023-03-15T08:42:18.347Z,18.52
2023-03-15T08:44:50.565Z,18.27
2023-03-15T08:47:22.523Z,10.73
2023-03-15T08:49:54.721Z,21.05
2023-03-15T08:52:29.569Z,12.60
2023-03-15T08:55:02.001Z,14.00
2023-03-15T08:57:34.302Z,19.27
2023-03-15T09:00:10.692Z,13.05
2023-03-15T09:02:43.241Z,15.30
2023-03-15T09:05:16.366Z,13.80
2023-03-15T09:07:53.446Z,14.95
2023-03-15T09:10:26.247Z,13.88
2023-03-15T09:12:58.923Z,14.43
2023-03-15T09:15:31.927Z,17.92
2023-03-15T09:18:04.085Z,17.33
2023-03-15T09:20:36.477Z,14.85
2023-03-15T09:23:11.200Z,11.30
2023-03-15T09:25:44.214Z,12.45
2023-03-15T09:28:16.363Z,7.47
2023-03-15T09:30:49.050Z,9.48
2023-03-15T09:33:22.811Z,14.90
2023-03-15T09:35:56.028Z,16.77
2023-03-15T09:38:31.487Z,12.38
2023-03-15T09:41:04.376Z,14.65
2023-03-15T09:43:53.745Z,15.60
2023-03-15T09:46:33.201Z,9.52
2023-03-15T09:49:11.404Z,14.77
2023-03-15T09:51:48.613Z,17.65
2023-03-15T09:54:29.695Z,9.55
2023-03-15T09:57:05.456Z,10.27
2023-03-15T09:59:43.909Z,7.35
2023-03-15T10:02:26.253Z,14.85
2023-03-15T10:05:03.232Z,12.15
2023-03-15T10:07:35.784Z,15.63
2023-03-15T10:10:18.311Z,12.23
2023-03-15T10:13:02.264Z,11.90
2023-03-15T10:15:47.039Z,14.27
2023-03-15T10:18:37.651Z,13.52
2023-03-15T10:21:15.730Z,11.30
2023-03-15T10:23:53.258Z,10.45
2023-03-15T10:26:33.140Z,15.50
2023-03-15T10:29:07.058Z,11.00
2023-03-15T10:31:45.164Z,10.57
2023-03-15T10:34:19.046Z,9.63
2023-03-15T10:36:54.777Z,12.82
2023-03-15T10:39:29.357Z,14.13
2023-03-15T10:42:04.328Z,9.93
2023-03-15T10:44:41.226Z,10.52
2023-03-15T10:47:23.569Z,9.98
2023-03-15T10:50:01.289Z,15.80
2023-03-15T10:52:37.732Z,6.75
2023-03-15T10:55:14.913Z,11.93
2023-03-15T10:57:58.249Z,4.22
2023-03-15T11:00:33.534Z,8.80
2023-03-15T11:03:07.534Z,11.02
2023-03-15T11:05:46.208Z,8.35
2023-03-15T11:08:20.696Z,11.18
2023-03-15T11:11:00.568Z,8.35
2023-03-15T11:13:36.205Z,9.95
2023-03-15T11:16:11.839Z,11.48
2023-03-15T11:18:50.087Z,8.48
2023-03-15T11:21:27.013Z,8.23
2023-03-15T11:24:01.586Z,9.45
2023-03-15T11:26:39.161Z,8.95
2023-03-15T11:29:24.855Z,6.47
2023-03-15T11:31:59.501Z,7.88
2023-03-15T11:34:50.562Z,9.20
2023-03-15T11:37:27.517Z,10.65
2023-03-15T11:40:11.746Z,12.10
2023-03-15T11:42:51.692Z,8.70
2023-03-15T11:45:35.076Z,10.05
2023-03-15T11:48:15.020Z,11.18
2023-03-15T11:50:48.371Z,9.55
2023-03-15T11:53:21.764Z,5.72
2023-03-15T11:55:56.304Z,9.55
2023-03-15T11:58:35.127Z,10.70
2023-03-15T12:01:13.919Z,10.50
2023-03-15T12:03:47.831Z,6.97
2023-03-15T12:06:39.764Z,10.88
2023-03-15T12:09:43.641Z,10.40
2023-03-15T12:12:38.223Z,10.10
2023-03-15T12:15:34.568Z,9.27
2023-03-15T12:18:10.001Z,7.05
2023-03-15T12:20:44.997Z,12.05
2023-03-15T12:23:32.389Z,5.88
2023-03-15T12:26:11.944Z,7.22
2023-03-15T12:28:52.893Z,7.45
2023-03-15T12:31:26.431Z,8.32
2023-03-15T12:34:01.901Z,5.97
2023-03-15T12:36:39.989Z,8.77
2023-03-15T12:39:25.541Z,10.60
2023-03-15T12:41:58.457Z,25.40
2023-03-15T12:44:49.208Z,12.05
2023-03-15T12:47:37.340Z,6.55
2023-03-15T12:50:53.271Z,5.10
2023-03-15T12:53:31.712Z,11.73
2023-03-15T12:56:39.834Z,6.22
2023-03-15T12:59:25.946Z,5.82
2023-03-15T13:02:00.465Z,9.65
2023-03-15T13:04:34.305Z,8.32
2023-03-15T13:07:23.260Z,8.65
2023-03-15T13:10:23.462Z,11.48
2023-03-15T13:13:04.340Z,9.35
2023-03-15T13:15:44.182Z,13.35
2023-03-15T13:18:22.398Z,7.75
2023-03-15T13:21:12.199Z,13.43
2023-03-15T13:23:52.806Z,11.43
2023-03-15T13:26:36.510Z,9.23
2023-03-15T13:29:18.177Z,6.40
2023-03-15T13:32:02.586Z,9.32
2023-03-15T13:34:37.066Z,9.25
2023-03-15T13:37:17.326Z,11.10
2023-03-15T13:40:04.503Z,7.57
2023-03-15T13:42:42.474Z,6.30
2023-03-15T13:45:16.692Z,13.27
2023-03-15T13:47:49.905Z,11.85
2023-03-15T13:50:24.252Z,11.77
2023-03-15T13:52:59.386Z,10.48
2023-03-15T13:55:38.931Z,8.32
2023-03-15T13:58:12.781Z,8.68
2023-03-15T14:00:45.030Z,7.13
2023-03-15T14:03:24.854Z,8.50
2023-03-15T14:05:59.259Z,10.23
2023-03-15T14:08:34.937Z,9.77
2023-03-15T14:11:14.861Z,8.98
2023-03-15T14:13:53.102Z,12.73
2023-03-15T14:16:42.779Z,9.63
2023-03-15T14:19:25.629Z,9.55
2023-03-15T14:22:00.202Z,11.20
2023-03-15T14:24:39.660Z,9.05
2023-03-15T14:27:19.830Z,9.00
2023-03-15T14:29:55.418Z,6.20
2023-03-15T14:32:30.809Z,5.40
2023-03-15T14:35:06.007Z,6.55
2023-03-15T14:37:43.691Z,7.50
2023-03-15T14:40:21.371Z,5.57
2023-03-15T14:42:56.158Z,8.15
2023-03-15T14:45:30.545Z,7.55
2023-03-15T14:48:33.531Z,4.82
2023-03-15T14:51:06.948Z,5.05
2023-03-15T14:53:41.141Z,4.20
2023-03-15T14:56:15.158Z,4.20
2023-03-15T14:58:50.337Z,6.60
2023-03-15T15:01:27.279Z,4.85
2023-03-15T15:04:02.690Z,4.25
2023-03-15T15:06:38.376Z,5.93
2023-03-15T15:09:11.964Z,4.07
2023-03-15T15:11:49.879Z,6.45
2023-03-15T15:14:25.812Z,6.03
2023-03-15T15:16:58.318Z,7.95
2023-03-15T15:19:30.445Z,4.40
2023-03-15T15:22:03.000Z,8.35
2023-03-15T15:24:35.201Z,6.10
2023-03-15T15:27:07.947Z,5.35
2023-03-15T15:29:42.679Z,7.03
2023-03-15T15:32:15.095Z,7.28
2023-03-15T15:34:47.492Z,7.30
2023-03-15T15:37:20.045Z,9.45
2023-03-15T15:39:52.121Z,4.32
2023-03-15T15:42:24.644Z,8.63
2023-03-15T15:44:59.205Z,6.95
2023-03-15T15:47:31.640Z,6.20
2023-03-15T15:50:04.239Z,9.07
2023-03-15T15:52:36.719Z,8.25
2023-03-15T15:55:14.689Z,8.85
2023-03-15T15:57:50.357Z,9.18
2023-03-15T16:00:41.099Z,9.90
2023-03-15T16:03:18.204Z,3.45
2023-03-15T16:05:50.430Z,9.70
2023-03-15T16:08:25.963Z,7.07
2023-03-15T16:10:58.036Z,9.60
2023-03-15T16:13:30.683Z,7.80
2023-03-15T16:16:05.301Z,4.28
2023-03-15T16:18:37.796Z,6.05
2023-03-15T16:21:10.075Z,5.72
2023-03-15T16:23:42.583Z,4.75
2023-03-15T16:26:18.712Z,8.80
2023-03-15T16:28:52.354Z,5.20
2023-03-15T16:31:27.134Z,8.23
2023-03-15T16:33:59.676Z,7.40
2023-03-15T16:36:34.830Z,2.60
2023-03-15T16:39:07.623Z,4.15
2023-03-15T16:41:40.074Z,4.05
2023-03-15T16:44:14.545Z,2.85
2023-03-15T16:46:49.577Z,4.00
2023-03-15T16:49:22.105Z,6.47
2023-03-15T16:51:56.716Z,3.42
2023-03-15T16:54:40.608Z,3.70
2023-03-15T16:57:20.156Z,5.93
2023-03-15T16:59:52.668Z,4.93
2023-03-15T17:02:29.185Z,5.47
2023-03-15T17:05:01.695Z,3.72
2023-03-15T17:07:37.305Z,6.18
2023-03-15T17:10:13.650Z,5.90
2023-03-15T17:12:45.852Z,7.60
2023-03-15T17:15:20.728Z,7.45
2023-03-15T17:17:58.008Z,6.18
2023-03-15T17:20:32.261Z,5.75
2023-03-15T17:23:07.543Z,4.97
2023-03-15T17:25:40.416Z,4.07
2023-03-15T17:28:12.980Z,9.13
2023-03-15T17:30:46.018Z,8.88
2023-03-15T17:33:21.085Z,5.65
2023-03-15T17:35:58.518Z,7.90
2023-03-15T17:38:34.122Z,5.63
2023-03-15T17:41:07.866Z,6.10
2023-03-15T17:43:42.550Z,6.72
2023-03-15T17:46:15.647Z,8.32
2023-03-15T17:48:50.561Z,6.22
2023-03-15T17:51:25.373Z,5.57
2023-03-15T17:53:58.070Z,4.53
2023-03-15T17:56:31.865Z,8.60
2023-03-15T17:59:03.551Z,6.78
2023-03-15T18:01:38.344Z,5.15
2023-03-15T18:04:14.028Z,5.57
2023-03-15T18:06:46.658Z,5.95
2023-03-15T18:09:19.201Z,10.35
2023-03-15T18:11:51.373Z,6.43
2023-03-15T18:14:42.760Z,10.20
2023-03-15T18:17:15.806Z,9.57
2023-03-15T18:19:50.414Z,7.32
2023-03-15T18:22:22.666Z,8.48
2023-03-15T18:24:54.232Z,8.85
2023-03-15T18:27:26.532Z,7.50
2023-03-15T18:29:59.001Z,9.27
2023-03-15T18:32:31.310Z,5.45
2023-03-15T18:35:06.025Z,10.43
2023-03-15T18:37:38.166Z,8.13
2023-03-15T18:40:11.776Z,10.48
2023-03-15T18:42:43.866Z,10.63
2023-03-15T18:45:21.606Z,8.85
2023-03-15T18:47:53.987Z,10.13
2023-03-15T18:50:28.862Z,6.82
2023-03-15T18:53:01.484Z,10.00
2023-03-15T18:55:33.220Z,7.93
2023-03-15T18:58:05.416Z,8.45
2023-03-15T19:00:38.128Z,6.22
2023-03-15T19:03:10.351Z,9.15
2023-03-15T19:05:45.067Z,7.43
2023-03-15T19:08:17.231Z,10.02
2023-03-15T19:10:49.905Z,8.40
2023-03-15T19:13:21.902Z,8.07
2023-03-15T19:15:53.943Z,9.77
2023-03-15T19:18:26.771Z,8.55
2023-03-15T19:21:02.819Z,12.50
2023-03-15T19:23:35.147Z,9.13
2023-03-15T19:26:06.970Z,7.97
2023-03-15T19:28:39.048Z,9.27
2023-03-15T19:31:11.632Z,10.27
2023-03-15T19:33:43.745Z,9.88
2023-03-15T19:36:18.707Z,12.52
2023-03-15T19:38:50.981Z,10.45
2023-03-15T19:41:22.691Z,11.73
2023-03-15T19:43:54.753Z,12.73
2023-03-15T19:46:26.524Z,10.45
2023-03-15T19:48:58.569Z,9.07
2023-03-15T19:51:32.892Z,10.43
2023-03-15T19:54:05.960Z,12.38
2023-03-15T19:56:45.922Z,9.68
2023-03-15T19:59:18.437Z,8.23
2023-03-15T20:01:50.513Z,10.00
2023-03-15T20:04:23.322Z,14.07
2023-03-15T20:06:58.031Z,10.95
2023-03-15T20:09:30.352Z,10.32
2023-03-15T20:12:02.394Z,8.20
2023-03-15T20:14:34.749Z,11.23
2023-03-15T20:17:07.157Z,14.98
2023-03-15T20:19:39.606Z,10.25
2023-03-15T20:22:15.375Z,14.13
2023-03-15T20:24:47.677Z,12.95
2023-03-15T20:27:20.848Z,9.60
2023-03-15T20:29:54.265Z,10.07
2023-03-15T20:32:26.401Z,12.63
2023-03-15T20:35:01.496Z,12.52
2023-03-15T20:37:35.878Z,12.20
2023-03-15T20:40:11.638Z,11.48
2023-03-15T20:42:44.002Z,12.90
2023-03-15T20:45:17.282Z,11.52
2023-03-15T20:47:49.559Z,11.05
2023-03-15T20:50:22.143Z,12.75
2023-03-15T20:52:56.692Z,11.57
2023-03-15T20:55:28.879Z,11.15
2023-03-15T20:58:00.588Z,12.23
2023-03-15T21:00:32.720Z,14.60
2023-03-15T21:03:04.511Z,12.50
2023-03-15T21:05:37.209Z,11.20
2023-03-15T21:08:11.874Z,12.73
2023-03-15T21:10:44.032Z,14.57
2023-03-15T21:13:15.715Z,7.63
2023-03-15T21:15:49.718Z,12.18
2023-03-15T21:18:22.137Z,14.88
2023-03-15T21:21:01.398Z,12.38
2023-03-15T21:23:54.112Z,11.55
2023-03-15T21:26:26.332Z,9.93
2023-03-15T21:28:58.181Z,12.48
2023-03-15T21:31:30.251Z,9.68
2023-03-15T21:34:02.381Z,11.55
2023-03-15T21:36:34.495Z,8.57
2023-03-15T21:39:08.900Z,13.27
2023-03-15T21:41:41.313Z,12.98
2023-03-15T21:44:13.319Z,7.85
2023-03-15T21:46:45.412Z,8.75
2023-03-15T21:49:17.141Z,13.45
2023-03-15T21:51:49.358Z,11.18
2023-03-15T21:54:23.695Z,7.82
2023-03-15T21:56:55.801Z,15.18
2023-03-15T21:59:29.061Z,11.20
2023-03-15T22:02:01.839Z,10.43
2023-03-15T22:04:34.277Z,11.90
2023-03-15T22:07:06.537Z,9.73
2023-03-15T22:09:42.220Z,13.52
2023-03-15T22:12:15.547Z,15.07
2023-03-15T22:14:56.843Z,10.73
2023-03-15T22:17:36.995Z,12.50
2023-03-15T22:20:16.874Z,8.43
2023-03-15T22:22:50.561Z,10.27
2023-03-15T22:25:25.160Z,9.90
2023-03-15T22:27:57.256Z,8.90
2023-03-15T22:30:29.063Z,9.73
2023-03-15T22:33:01.791Z,14.75
2023-03-15T22:35:34.476Z,13.52
2023-03-15T22:38:10.471Z,12.18
2023-03-15T22:40:45.347Z,10.75
2023-03-15T22:43:18.140Z,11.80
2023-03-15T22:45:49.862Z,12.00
2023-03-15T22:48:23.127Z,13.90
2023-03-15T22:51:00.669Z,11.82
2023-03-15T22:53:33.511Z,8.02
2023-03-15T22:56:07.959Z,12.90
2023-03-15T22:58:40.383Z,9.10
2023-03-15T23:01:12.350Z,11.88
2023-03-15T23:03:44.405Z,13.52
2023-03-15T23:06:16.315Z,10.25
2023-03-15T23:08:48.662Z,15.43
2023-03-15T23:11:22.896Z,8.75
2023-03-15T23:13:55.018Z,10.40
2023-03-15T23:16:26.688Z,11.82
2023-03-15T23:18:58.682Z,13.30
2023-03-15T23:21:30.738Z,9.32
2023-03-15T23:24:02.629Z,11.32
2023-03-15T23:26:37.719Z,11.85
2023-03-15T23:29:11.080Z,10.25
2023-03-15T23:31:44.442Z,11.93
2023-03-15T23:34:16.431Z,8.40
2023-03-15T23:36:47.926Z,8.02
2023-03-15T23:39:20.264Z,10.32
2023-03-15T23:41:58.183Z,8.93
2023-03-15T23:44:30.028Z,17.77
2023-03-15T23:47:03.146Z,10.30
2023-03-15T23:49:35.366Z,8.50
2023-03-15T23:52:07.649Z,11.40
2023-03-15T23:54:42.602Z,14.10
2023-03-15T23:57:18.782Z,9.18
2023-03-15T23:59:51.357Z,18.42
